Time;durP1;ratioP1;P1;durP2;ratioP2;P2;SDS_P1;SDS_P2;PMS_P1;PMS_P2;Temp;Humidity;BMP_temperature;BMP_pressure;BME280_temperature;BME280_humidity;BME280_pressure;Samples;Min_cycle;Max_cycle;Signal;HPM_P1;HPM_P2
2022/09/27 00:01:28;;;;;;;9.68;1.45;;;;;;;14.21;69.05;99837.84;6243652;22;20015;-74
2022/09/27 00:03:59;;;;;;;9.27;1.20;;;;;;;13.89;70.01;99834.06;6249483;22;19999;-75
2022/09/27 00:06:27;;;;;;;8.77;1.02;;;;;;;14.03;68.79;99835.53;6239709;22;20377;-74
2022/09/27 00:08:53;;;;;;;9.60;1.65;;;;;;;13.90;67.78;99836.66;6247388;22;20455;-75
2022/09/27 00:11:36;;;;;;;9.35;1.42;;;;;;;13.94;66.42;99830.47;6241946;22;20008;-73
2022/09/27 00:14:02;;;;;;;11.93;1.48;;;;;;;13.81;66.42;99835.03;6242140;22;20498;-75
2022/09/27 00:16:30;;;;;;;7.43;1.50;;;;;;;14.00;65.79;99837.34;6242795;22;20279;-74
2022/09/27 00:19:04;;;;;;;7.15;1.02;;;;;;;14.00;65.67;99847.84;6244170;22;20223;-74
2022/09/27 00:21:30;;;;;;;10.27;1.08;;;;;;;14.05;65.95;99833.75;6244947;22;20031;-74
2022/09/27 00:23:57;;;;;;;11.00;1.13;;;;;;;13.83;67.03;99832.41;6243642;22;20043;-74
2022/09/27 00:26:23;;;;;;;9.68;1.42;;;;;;;13.91;66.82;99835.75;6245652;22;20443;-74
2022/09/27 00:28:48;;;;;;;6.43;1.00;;;;;;;13.90;67.07;99835.78;6244066;22;20008;-74
2022/09/27 00:31:19;;;;;;;7.68;0.98;;;;;;;13.90;67.13;99843.66;6247084;22;20031;-74
2022/09/27 00:33:50;;;;;;;6.63;1.00;;;;;;;13.79;67.19;99842.06;6248374;22;20004;-75
2022/09/27 00:36:16;;;;;;;11.35;1.30;;;;;;;13.88;66.27;99846.28;6239936;22;20020;-74
2022/09/27 00:38:42;;;;;;;11.27;1.35;;;;;;;14.21;65.09;99844.81;6246027;22;20082;-74
2022/09/27 00:41:15;;;;;;;10.50;1.63;;;;;;;14.25;64.97;99845.66;6242417;22;20094;-74
2022/09/27 00:43:53;;;;;;;8.18;1.30;;;;;;;14.23;65.50;99854.41;6245168;22;20008;-74
2022/09/27 00:46:34;;;;;;;7.45;1.17;;;;;;;14.37;65.26;99841.09;6239003;22;20960;-75
2022/09/27 00:49:05;;;;;;;9.82;1.27;;;;;;;14.23;64.79;99849.16;6243906;22;20011;-75
2022/09/27 00:51:33;;;;;;;7.22;1.20;;;;;;;14.29;65.37;99850.81;6249494;22;20521;-75
2022/09/27 00:53:59;;;;;;;8.68;1.20;;;;;;;14.28;65.45;99843.84;6238412;22;20003;-75
2022/09/27 00:56:29;;;;;;;11.95;1.20;;;;;;;14.32;65.40;99848.16;6246386;22;20054;-75
2022/09/27 00:59:01;;;;;;;9.48;1.55;;;;;;;14.31;65.72;99849.03;6243688;22;20012;-74
2022/09/27 01:01:29;;;;;;;8.98;1.23;;;;;;;14.22;66.41;99850.06;6251206;22;20079;-74
2022/09/27 01:04:06;;;;;;;8.82;1.30;;;;;;;14.37;65.17;99841.09;6248500;22;20007;-74
2022/09/27 01:06:32;;;;;;;6.57;1.08;;;;;;;14.28;65.91;99850.84;6244498;22;20011;-75
2022/09/27 01:08:58;;;;;;;10.10;1.20;;;;;;;14.15;64.77;99855.44;6245580;22;20008;-74
2022/09/27 01:11:32;;;;;;;10.48;1.08;;;;;;;14.12;62.75;99856.34;6241069;22;20039;-75
2022/09/27 01:14:14;;;;;;;9.68;1.33;;;;;;;14.34;61.13;99850.72;6245573;22;20087;-76
2022/09/27 01:17:04;;;;;;;6.95;1.20;;;;;;;14.40;62.57;99862.00;6240610;22;20039;-73
2022/09/27 01:19:48;;;;;;;7.40;1.35;;;;;;;14.36;61.46;99856.81;6244430;22;20004;-73
2022/09/27 01:22:28;;;;;;;5.28;1.00;;;;;;;14.55;61.53;99855.63;6239210;22;20008;-75
2022/09/27 01:24:57;;;;;;;5.78;1.20;;;;;;;14.37;61.61;99866.41;6247139;22;20019;-76
2022/09/27 01:27:28;;;;;;;7.60;0.95;;;;;;;14.34;61.14;99864.69;6247892;22;20011;-75
2022/09/27 01:30:12;;;;;;;5.88;0.90;;;;;;;14.27;60.18;99868.34;6237104;22;20019;-75
2022/09/27 01:32:55;;;;;;;4.25;0.80;;;;;;;14.04;59.20;99867.84;6245169;22;20011;-76
2022/09/27 01:35:21;;;;;;;3.78;0.90;;;;;;;14.35;58.87;99866.44;6241618;22;20011;-76
2022/09/27 01:38:10;;;;;;;7.05;0.90;;;;;;;14.16;58.51;99868.50;6247993;22;20493;-75
2022/09/27 01:41:06;;;;;;;6.57;0.90;;;;;;;14.37;59.48;99861.16;6241121;22;20007;-76
2022/09/27 01:43:37;;;;;;;3.90;0.77;;;;;;;14.39;59.56;99860.28;6241779;22;20020;-75
2022/09/27 01:46:15;;;;;;;6.70;0.80;;;;;;;14.25;60.67;99858.75;6235007;22;20062;-75
2022/09/27 01:48:46;;;;;;;5.47;1.00;;;;;;;14.13;60.78;99859.84;6246011;22;20018;-76
2022/09/27 01:51:26;;;;;;;5.22;1.10;;;;;;;13.96;61.86;99856.66;6244845;22;20447;-75
2022/09/27 01:53:56;;;;;;;5.43;0.95;;;;;;;14.21;61.03;99858.81;6242468;22;20550;-75
2022/09/27 01:56:32;;;;;;;3.92;0.80;;;;;;;14.17;61.34;99854.53;6242555;22;20450;-75
2022/09/27 01:59:13;;;;;;;9.82;1.08;;;;;;;14.06;62.22;99855.59;6243079;22;20070;-76
2022/09/27 02:01:42;;;;;;;4.30;0.80;;;;;;;14.18;62.17;99864.13;6246760;22;20103;-74
2022/09/27 02:04:13;;;;;;;4.78;1.00;;;;;;;14.19;62.62;99849.25;6240890;22;20094;-74
2022/09/27 02:06:42;;;;;;;7.63;1.15;;;;;;;14.11;63.57;99853.75;6245477;22;20516;-74
2022/09/27 02:09:24;;;;;;;7.93;1.00;;;;;;;14.06;63.60;99843.38;6248150;22;20086;-74
2022/09/27 02:11:56;;;;;;;7.53;1.27;;;;;;;13.99;65.43;99862.69;6246875;22;20046;-74
2022/09/27 02:14:43;;;;;;;6.25;1.10;;;;;;;13.81;64.70;99856.00;6245768;22;20061;-73
2022/09/27 02:17:20;;;;;;;13.20;1.60;;;;;;;12.98;66.88;99917.34;6240432;22;20072;-76
2022/09/27 02:19:55;;;;;;;12.07;1.38;;;;;;;12.70;65.10;99905.44;6247992;22;20066;-73
2022/09/27 02:23:09;;;;;;;9.57;1.30;;;;;;;12.59;66.56;99890.75;6240955;22;20458;-73
2022/09/27 02:26:04;;;;;;;6.28;0.70;;;;;;;12.70;66.96;99882.78;6153976;23;20237;-73
2022/09/27 02:28:42;;;;;;;4.43;0.90;;;;;;;12.47;68.43;99885.63;6147890;23;20019;-74
2022/09/27 02:31:08;;;;;;;4.50;0.60;;;;;;;12.81;67.67;99883.50;6231823;22;20415;-73
2022/09/27 02:33:39;;;;;;;2.90;0.63;;;;;;;12.76;68.39;99874.00;6247843;22;20330;-73
2022/09/27 02:36:04;;;;;;;5.03;0.70;;;;;;;12.87;68.18;99866.88;6236298;22;20481;-73
2022/09/27 02:38:30;;;;;;;5.32;1.10;;;;;;;12.96;68.08;99861.56;6252445;22;20004;-73
2022/09/27 02:40:56;;;;;;;3.83;0.60;;;;;;;13.00;67.93;99863.25;6243919;22;20115;-74
2022/09/27 02:43:25;;;;;;;5.40;0.63;;;;;;;12.99;67.42;99854.50;6248557;22;20041;-73
2022/09/27 02:46:04;;;;;;;5.07;0.63;;;;;;;12.95;67.76;99857.19;6247070;22;20003;-73
2022/09/27 02:49:00;;;;;;;3.33;0.80;;;;;;;12.88;67.61;99856.41;6246414;22;20029;-73
2022/09/27 02:51:46;;;;;;;8.63;0.98;;;;;;;12.70;69.40;99859.25;6247757;22;20008;-73
2022/09/27 02:54:37;;;;;;;4.80;1.00;;;;;;;12.77;68.50;99860.03;6238225;22;20087;-73
2022/09/27 02:57:05;;;;;;;6.45;0.90;;;;;;;12.69;68.83;99857.50;6247262;22;20391;-73
2022/09/27 02:59:57;;;;;;;2.95;0.80;;;;;;;12.67;68.79;99859.28;6240048;22;20068;-74
2022/09/27 03:02:26;;;;;;;5.10;1.05;;;;;;;12.60;69.27;99852.38;6247070;22;20007;-73
2022/09/27 03:05:00;;;;;;;4.90;1.10;;;;;;;12.58;69.06;99856.75;6243707;22;20522;-73
2022/09/27 03:07:26;;;;;;;5.40;0.73;;;;;;;12.59;69.02;99864.59;6246634;22;20003;-73
2022/09/27 03:09:53;;;;;;;5.68;0.73;;;;;;;12.59;69.61;99861.13;6246733;22;20058;-72
2022/09/27 03:12:24;;;;;;;8.82;0.93;;;;;;;12.64;69.81;99850.59;6236769;22;20085;-72
2022/09/27 03:14:51;;;;;;;5.57;0.80;;;;;;;12.68;69.77;99852.31;6249159;22;20308;-74
2022/09/27 03:17:16;;;;;;;4.88;0.90;;;;;;;12.79;70.08;99845.19;6239877;22;20417;-72
2022/09/27 03:19:41;;;;;;;3.97;0.65;;;;;;;12.89;70.46;99845.06;6248534;22;19999;-75
2022/09/27 03:22:07;;;;;;;6.57;0.90;;;;;;;12.99;69.99;99845.84;6239218;22;20011;-75
2022/09/27 03:24:32;;;;;;;4.10;0.80;;;;;;;12.97;70.62;99843.22;6250303;22;20007;-74
2022/09/27 03:26:58;;;;;;;7.25;0.85;;;;;;;13.00;70.90;99843.16;6248921;22;20450;-74
2022/09/27 03:29:23;;;;;;;9.38;0.80;;;;;;;12.88;71.92;99851.19;6241529;22;20014;-72
2022/09/27 03:31:49;;;;;;;8.05;0.80;;;;;;;13.11;71.17;99840.44;6246398;22;20035;-73
2022/09/27 03:34:14;;;;;;;3.22;0.73;;;;;;;12.97;71.88;99840.63;6238993;22;20100;-73
2022/09/27 03:36:39;;;;;;;5.53;0.82;;;;;;;12.86;71.87;99870.41;6245341;22;20015;-75
2022/09/27 03:39:05;;;;;;;6.65;0.82;;;;;;;12.68;72.42;99881.09;6244858;22;20437;-73
2022/09/27 03:41:30;;;;;;;7.68;0.75;;;;;;;12.67;71.89;99874.13;6241091;22;20030;-73
2022/09/27 03:43:56;;;;;;;3.45;0.70;;;;;;;12.73;71.90;99874.91;6249070;22;20111;-73
2022/09/27 03:46:22;;;;;;;3.38;0.90;;;;;;;13.07;70.45;99866.66;6236949;22;22734;-74
2022/09/27 03:48:47;;;;;;;5.50;0.80;;;;;;;12.91;70.83;99868.59;6247227;22;20027;-73
2022/09/27 03:51:13;;;;;;;7.30;1.05;;;;;;;12.99;71.07;99858.91;6248014;22;20051;-73
2022/09/27 03:53:38;;;;;;;5.53;0.80;;;;;;;13.02;71.41;99857.13;6240483;22;20073;-74
2022/09/27 03:56:03;;;;;;;4.32;0.65;;;;;;;13.18;70.66;99855.19;6241089;22;20008;-73
2022/09/27 03:58:29;;;;;;;4.57;0.80;;;;;;;13.25;70.58;99861.19;6241875;22;20446;-74
2022/09/27 04:00:54;;;;;;;8.68;1.10;;;;;;;13.21;70.97;99862.13;6245620;22;20106;-74
2022/09/27 04:03:20;;;;;;;6.05;1.10;;;;;;;12.68;72.95;99915.94;6248198;22;20007;-74
2022/09/27 04:05:45;;;;;;;4.95;0.82;;;;;;;12.98;72.67;99872.88;6244540;22;20166;-74
2022/09/27 04:08:11;;;;;;;9.23;1.20;;;;;;;13.04;71.95;99866.69;6242565;22;19999;-74
2022/09/27 04:10:37;;;;;;;6.10;0.80;;;;;;;13.19;70.85;99864.78;6241546;22;20023;-74
2022/09/27 04:13:03;;;;;;;7.03;1.08;;;;;;;13.20;71.10;99863.03;6243985;22;20003;-74
2022/09/27 04:15:28;;;;;;;4.13;0.68;;;;;;;13.31;70.64;99856.75;6248131;22;20445;-74
2022/09/27 04:17:54;;;;;;;5.05;0.75;;;;;;;13.08;71.64;99847.44;6241721;22;20046;-74
2022/09/27 04:20:19;;;;;;;6.47;0.80;;;;;;;13.27;70.43;99851.59;6244103;22;20152;-74
2022/09/27 04:22:45;;;;;;;5.57;0.82;;;;;;;13.05;71.42;99853.59;6243534;22;20039;-74
2022/09/27 04:25:11;;;;;;;3.60;0.77;;;;;;;13.22;70.37;99851.66;6245790;22;20006;-73
2022/09/27 04:27:36;;;;;;;3.35;0.80;;;;;;;13.23;70.57;99858.63;6244504;22;20008;-73
2022/09/27 04:30:04;;;;;;;3.05;0.60;;;;;;;13.21;70.57;99846.44;6241016;22;20018;-73
2022/09/27 04:32:29;;;;;;;3.58;0.60;;;;;;;13.22;70.35;99848.16;6250417;22;20012;-73
2022/09/27 04:37:39;;;;;;;3.90;0.50;;;;;;;13.15;70.75;99849.13;6247810;22;20038;-73
2022/09/27 04:40:05;;;;;;;4.50;0.60;;;;;;;13.12;70.79;99852.66;6238486;22;20007;-72
2022/09/27 04:42:31;;;;;;;5.43;0.70;;;;;;;13.09;71.17;99852.66;6248978;22;20366;-74
2022/09/27 04:44:56;;;;;;;7.13;0.90;;;;;;;13.16;70.85;99856.09;6247371;22;20402;-73
2022/09/27 04:47:21;;;;;;;3.20;0.70;;;;;;;13.19;70.53;99854.31;6244700;22;20018;-74
2022/09/27 04:49:47;;;;;;;4.43;0.95;;;;;;;13.18;70.66;99857.78;6245521;22;20011;-74
2022/09/27 04:52:14;;;;;;;4.65;0.80;;;;;;;13.22;70.60;99856.03;6239299;22;20228;-73
2022/09/27 04:54:40;;;;;;;5.60;0.80;;;;;;;13.11;71.89;99860.50;6247511;22;20010;-73
2022/09/27 04:57:05;;;;;;;3.70;0.70;;;;;;;13.16;71.91;99864.81;6242628;22;20449;-73
2022/09/27 04:59:31;;;;;;;8.13;0.90;;;;;;;12.67;72.86;99893.28;6241977;22;20012;-74
2022/09/27 05:01:59;;;;;;;6.30;0.98;;;;;;;12.36;70.91;99871.81;6247801;22;20193;-73
2022/09/27 05:04:24;;;;;;;3.00;0.57;;;;;;;12.80;68.96;99871.34;6242640;22;20014;-73
2022/09/27 05:06:49;;;;;;;4.57;0.57;;;;;;;12.92;69.39;99871.19;6247968;22;20008;-74
2022/09/27 05:09:15;;;;;;;3.40;0.63;;;;;;;12.99;69.28;99869.38;6247157;22;20080;-74
2022/09/27 05:11:40;;;;;;;4.22;0.70;;;;;;;12.97;69.96;99877.25;6241894;22;20011;-74
2022/09/27 05:14:05;;;;;;;4.85;0.68;;;;;;;12.80;70.82;99875.72;6245960;22;20440;-73
2022/09/27 05:16:32;;;;;;;6.40;0.90;;;;;;;12.94;71.00;99884.25;6244148;22;20016;-74
2022/09/27 05:18:57;;;;;;;4.32;0.63;;;;;;;12.80;71.38;99883.56;6245846;22;20019;-74
2022/09/27 05:21:23;;;;;;;8.75;0.90;;;;;;;12.90;71.49;99875.56;6246254;22;20004;-74
2022/09/27 05:23:48;;;;;;;7.43;1.10;;;;;;;13.12;70.69;99878.81;6244666;22;20034;-73
2022/09/27 05:26:13;;;;;;;6.82;1.17;;;;;;;13.10;71.15;99872.72;6244058;22;20069;-74
2022/09/27 05:28:41;;;;;;;6.30;0.80;;;;;;;12.90;71.87;99882.56;6240118;22;20033;-74
2022/09/27 05:31:07;;;;;;;5.15;0.85;;;;;;;12.90;71.79;99877.31;6246147;22;20046;-73
2022/09/27 05:33:33;;;;;;;8.18;0.73;;;;;;;12.86;71.44;99873.03;6245428;22;20004;-73
2022/09/27 05:35:58;;;;;;;3.95;0.68;;;;;;;13.02;71.26;99875.44;6239441;22;20038;-73
2022/09/27 05:38:24;;;;;;;6.97;1.15;;;;;;;13.22;70.45;99867.34;6246604;22;20011;-74
2022/09/27 05:40:50;;;;;;;4.22;0.80;;;;;;;13.24;70.64;99862.94;6241967;22;20087;-72
2022/09/27 05:43:20;;;;;;;5.68;0.50;;;;;;;13.33;70.19;99867.22;6247803;22;20016;-72
2022/09/27 05:45:45;;;;;;;4.75;0.60;;;;;;;13.39;69.92;99861.88;6249276;22;20022;-72
2022/09/27 05:48:12;;;;;;;4.43;0.80;;;;;;;13.35;69.99;99863.69;6238941;22;20434;-74
2022/09/27 05:50:39;;;;;;;4.18;0.93;;;;;;;13.31;70.37;99867.22;6246779;22;20209;-74
2022/09/27 05:53:05;;;;;;;3.78;0.70;;;;;;;13.34;70.46;99868.94;6242048;22;20007;-73
2022/09/27 05:55:30;;;;;;;4.05;1.10;;;;;;;13.29;70.58;99863.78;6250053;22;20014;-73
2022/09/27 05:58:01;;;;;;;4.43;0.70;;;;;;;13.36;70.40;99867.16;6247830;22;20464;-72
2022/09/27 06:00:27;;;;;;;10.55;0.93;;;;;;;13.34;70.55;99867.19;6246007;22;20431;-72
2022/09/27 06:02:57;;;;;;;3.65;0.70;;;;;;;13.39;70.07;99865.38;6246785;22;20038;-73
2022/09/27 06:05:24;;;;;;;6.30;0.80;;;;;;;13.29;70.91;99870.75;6245520;22;20069;-72
2022/09/27 06:07:50;;;;;;;4.03;0.80;;;;;;;13.35;70.90;99873.28;6244201;22;20455;-73
2022/09/27 06:10:17;;;;;;;5.75;0.98;;;;;;;13.31;71.27;99864.59;6242553;22;20003;-73
2022/09/27 06:12:42;;;;;;;3.70;0.70;;;;;;;13.39;70.74;99865.38;6246547;22;20007;-73
2022/09/27 06:15:08;;;;;;;3.97;0.52;;;;;;;13.33;71.15;99867.22;6250198;22;20022;-73
2022/09/27 06:17:34;;;;;;;2.53;0.60;;;;;;;13.35;71.07;99868.94;6242833;22;20007;-73
2022/09/27 06:20:00;;;;;;;3.60;0.77;;;;;;;13.39;70.87;99870.59;6244821;22;20118;-73
2022/09/27 06:22:25;;;;;;;4.63;0.70;;;;;;;13.42;70.76;99866.22;6240921;22;20359;-72
2022/09/27 06:24:50;;;;;;;3.25;0.60;;;;;;;13.42;70.59;99872.28;6251165;22;20067;-73
2022/09/27 06:27:17;;;;;;;4.82;0.75;;;;;;;13.42;70.91;99867.06;6249514;22;20863;-74
2022/09/27 06:29:42;;;;;;;2.45;0.75;;;;;;;13.43;71.04;99876.66;6241499;22;20110;-73
2022/09/27 06:32:07;;;;;;;3.63;0.50;;;;;;;13.49;71.33;99878.31;6242946;22;20004;-73
2022/09/27 06:34:33;;;;;;;3.10;0.80;;;;;;;13.57;70.96;99892.19;6237224;22;20047;-74
2022/09/27 06:36:58;;;;;;;5.35;0.90;;;;;;;13.42;71.44;99880.16;6245046;22;20424;-74
2022/09/27 06:39:23;;;;;;;6.13;0.80;;;;;;;13.56;71.21;99878.22;6248133;22;20007;-74
2022/09/27 06:41:56;;;;;;;3.17;0.70;;;;;;;13.60;71.08;99879.88;6244500;22;20095;-74
2022/09/27 06:44:23;;;;;;;3.92;0.50;;;;;;;13.62;71.06;99879.88;6246324;22;20193;-73
2022/09/27 06:46:49;;;;;;;4.05;0.50;;;;;;;13.42;70.49;99882.78;6240961;22;20089;-74
2022/09/27 06:49:15;;;;;;;2.08;0.50;;;;;;;13.44;69.91;99895.84;6247011;22;20419;-74
2022/09/27 06:51:41;;;;;;;2.83;0.50;;;;;;;12.49;70.34;99925.72;6247377;22;20015;-74
2022/09/27 06:54:06;;;;;;;2.65;0.60;;;;;;;12.45;69.69;99931.84;6239621;22;20234;-74
2022/09/27 06:56:31;;;;;;;4.32;0.70;;;;;;;12.34;70.44;99933.69;6246260;22;20003;-74
2022/09/27 07:01:41;;;;;;;4.97;0.70;;;;;;;12.33;71.73;99931.06;6240739;22;20388;-75
2022/09/27 07:04:10;;;;;;;5.65;1.00;;;;;;;12.47;72.07;99931.81;6237924;22;20558;-73
2022/09/27 07:06:36;;;;;;;5.07;0.80;;;;;;;12.78;71.40;99932.38;6246973;22;20008;-74
2022/09/27 07:09:02;;;;;;;6.88;1.00;;;;;;;12.58;72.50;99925.63;6245018;22;20033;-74
2022/09/27 07:11:27;;;;;;;7.07;1.05;;;;;;;12.88;72.02;99931.41;6239922;22;20438;-75
2022/09/27 07:13:53;;;;;;;7.25;0.93;;;;;;;12.51;73.87;99930.91;6249781;22;20002;-74
2022/09/27 07:16:19;;;;;;;6.30;1.10;;;;;;;12.86;72.94;99935.81;6236346;22;20012;-74
2022/09/27 07:18:47;;;;;;;6.65;1.00;;;;;;;13.05;72.35;99937.34;6243743;22;20031;-75
2022/09/27 07:21:14;;;;;;;7.07;1.08;;;;;;;13.11;72.22;99936.41;6244335;22;20014;-74
2022/09/27 07:23:40;;;;;;;5.18;1.05;;;;;;;13.45;71.36;99935.09;6240949;22;20007;-73
2022/09/27 07:26:07;;;;;;;6.72;0.93;;;;;;;13.41;71.64;99938.66;6238605;22;20420;-73
2022/09/27 07:28:33;;;;;;;6.80;0.88;;;;;;;13.59;71.21;99937.56;6243055;22;20011;-74
2022/09/27 07:31:01;;;;;;;6.93;0.90;;;;;;;13.77;70.77;99930.28;6245153;22;20010;-74
2022/09/27 07:33:26;;;;;;;6.20;0.80;;;;;;;13.79;70.64;99927.63;6230750;22;20108;-75
2022/09/27 07:35:51;;;;;;;2.97;0.82;;;;;;;13.86;71.14;99931.03;6242796;22;20112;-74
2022/09/27 07:38:17;;;;;;;3.65;0.90;;;;;;;14.00;70.93;99919.47;6239252;22;20486;-75
2022/09/27 07:40:42;;;;;;;7.70;1.52;;;;;;;14.11;71.18;99921.91;6244182;22;20435;-74
2022/09/27 07:43:08;;;;;;;3.85;0.80;;;;;;;14.30;70.53;99922.47;6247058;22;20121;-75
2022/09/27 07:45:34;;;;;;;3.67;0.70;;;;;;;14.36;70.22;99919.75;6248483;22;20061;-74
2022/09/27 07:47:59;;;;;;;4.40;1.00;;;;;;;14.30;70.83;99923.34;6235215;22;20015;-74
2022/09/27 07:50:25;;;;;;;4.38;1.08;;;;;;;14.33;70.99;99923.31;6245525;22;20224;-74
2022/09/27 07:52:51;;;;;;;5.25;0.88;;;;;;;14.37;71.01;99926.72;6242735;22;20436;-73
2022/09/27 07:55:18;;;;;;;6.32;1.13;;;;;;;14.02;71.72;99940.41;6245735;22;20014;-74
2022/09/27 07:57:46;;;;;;;9.45;1.45;;;;;;;13.85;72.45;99943.25;6243265;22;20018;-73
2022/09/27 08:00:14;;;;;;;8.70;1.23;;;;;;;14.07;72.17;99946.44;6238820;22;20012;-73
2022/09/27 08:02:41;;;;;;;10.02;1.90;;;;;;;14.05;72.29;99949.06;6243918;22;20014;-74
2022/09/27 08:05:08;;;;;;;5.90;1.70;;;;;;;14.46;71.70;99951.06;6238265;22;20438;-73
2022/09/27 08:07:33;;;;;;;6.35;1.70;;;;;;;14.65;71.09;99945.47;6244765;22;20007;-74
2022/09/27 08:09:59;;;;;;;8.38;1.73;;;;;;;14.69;70.79;99947.19;6242903;22;20150;-74
2022/09/27 08:12:24;;;;;;;6.53;1.48;;;;;;;14.67;71.03;99956.81;6240105;22;20038;-73
2022/09/27 08:14:57;;;;;;;7.25;1.13;;;;;;;14.36;70.56;99965.19;6246302;22;20008;-74
2022/09/27 08:17:22;;;;;;;6.38;1.05;;;;;;;14.12;71.73;99978.69;6239203;22;20008;-74
2022/09/27 08:19:48;;;;;;;8.85;1.00;;;;;;;13.86;70.64;99986.06;6245730;22;20008;-74
2022/09/27 08:22:15;;;;;;;5.15;0.90;;;;;;;13.73;70.79;99985.34;6237452;22;20042;-73
2022/09/27 08:24:40;;;;;;;6.32;0.80;;;;;;;13.92;69.95;99978.97;6247142;22;20014;-74
2022/09/27 08:27:06;;;;;;;5.47;0.80;;;;;;;13.71;70.26;99990.63;6247376;22;20011;-75
2022/09/27 08:29:32;;;;;;;8.93;1.20;;;;;;;13.51;71.15;99976.06;6239626;22;20008;-74
2022/09/27 08:31:58;;;;;;;6.72;0.82;;;;;;;13.77;70.58;99973.97;6241138;22;20365;-73
2022/09/27 08:34:23;;;;;;;4.60;0.70;;;;;;;13.60;70.68;99974.16;6241037;22;20022;-73
2022/09/27 08:36:48;;;;;;;6.68;1.45;;;;;;;13.19;72.90;99987.78;6248412;22;20007;-74
2022/09/27 08:39:14;;;;;;;5.40;0.82;;;;;;;13.59;71.83;99977.69;6241178;22;20050;-73
2022/09/27 08:41:53;;;;;;;4.43;1.08;;;;;;;13.85;71.21;99979.06;6240697;22;20095;-73
2022/09/27 08:44:30;;;;;;;3.40;0.70;;;;;;;13.95;71.25;99980.69;6244082;22;20015;-75
2022/09/27 08:47:08;;;;;;;4.63;0.93;;;;;;;14.18;70.51;99978.59;6241312;22;20297;-75
2022/09/27 08:49:42;;;;;;;5.60;1.00;;;;;;;13.86;71.18;99986.91;6246041;22;20011;-73
2022/09/27 08:52:18;;;;;;;5.35;0.90;;;;;;;13.93;71.55;99977.22;6238329;22;20018;-74
2022/09/27 08:54:45;;;;;;;3.65;0.85;;;;;;;14.20;70.61;99975.06;6248419;22;20259;-74
2022/09/27 08:57:12;;;;;;;6.30;1.00;;;;;;;14.21;70.36;99974.16;6245610;22;20031;-74
2022/09/27 08:59:46;;;;;;;2.80;0.70;;;;;;;14.28;71.05;99967.06;6241155;22;20047;-73
2022/09/27 09:02:18;;;;;;;3.67;1.10;;;;;;;14.39;71.32;99967.81;6240828;22;20114;-74
2022/09/27 09:04:47;;;;;;;5.30;0.90;;;;;;;14.47;71.14;99965.03;6242193;22;20007;-74
2022/09/27 09:07:25;;;;;;;8.70;0.90;;;;;;;14.74;70.99;99964.56;6246615;22;20007;-73
2022/09/27 09:10:00;;;;;;;7.18;0.82;;;;;;;14.72;71.13;99963.72;6250140;22;20007;-74
2022/09/27 09:12:47;;;;;;;4.43;0.90;;;;;;;14.93;70.81;99958.09;6243579;22;20439;-73
2022/09/27 09:15:53;;;;;;;4.85;0.77;;;;;;;15.19;70.85;99961.94;6248789;22;20332;-73
2022/09/27 09:18:41;;;;;;;5.90;1.02;;;;;;;14.94;69.97;99962.41;6235845;22;20117;-75
2022/09/27 09:21:13;;;;;;;3.25;0.80;;;;;;;15.09;70.54;99960.41;6247851;22;20003;-73
2022/09/27 09:23:48;;;;;;;4.20;1.00;;;;;;;15.08;69.28;99967.41;6244030;22;20019;-73
2022/09/27 09:26:18;;;;;;;6.43;1.10;;;;;;;15.12;69.36;99966.47;6241001;22;20035;-74
2022/09/27 09:29:05;;;;;;;3.50;0.93;;;;;;;14.93;69.17;99980.84;6240556;22;20402;-74
2022/09/27 09:31:31;;;;;;;4.80;1.30;;;;;;;14.61;70.35;99990.16;6246214;22;20007;-74
2022/09/27 09:34:04;;;;;;;6.82;2.30;;;;;;;14.35;70.75;99994.91;6247033;22;20442;-74
2022/09/27 09:36:31;;;;;;;8.05;1.20;;;;;;;14.05;71.45;100001.50;6245019;22;20011;-74
2022/09/27 09:39:21;;;;;;;8.88;1.25;;;;;;;14.23;70.71;99992.47;6245054;22;20336;-74
2022/09/27 09:41:49;;;;;;;4.45;1.08;;;;;;;14.32;69.55;99999.34;6243413;22;20023;-74
2022/09/27 09:44:26;;;;;;;3.35;0.80;;;;;;;14.14;69.53;99992.63;6245036;22;20004;-74
2022/09/27 09:46:56;;;;;;;5.95;1.00;;;;;;;14.24;68.90;99991.59;6239570;22;20011;-74
2022/09/27 09:49:29;;;;;;;3.22;0.80;;;;;;;14.18;68.75;99995.19;6233317;22;20038;-74
2022/09/27 09:52:18;;;;;;;3.95;1.10;;;;;;;14.16;69.25;99996.94;6246713;22;20012;-73
2022/09/27 09:54:50;;;;;;;5.68;1.17;;;;;;;13.84;70.76;100008.81;6243769;22;20320;-74
2022/09/27 09:57:22;;;;;;;2.72;1.05;;;;;;;14.00;70.40;100005.94;6243774;22;20010;-75
2022/09/27 10:00:01;;;;;;;6.88;0.90;;;;;;;13.71;70.83;100015.97;6240694;22;20148;-74
2022/09/27 10:02:37;;;;;;;8.35;1.38;;;;;;;13.57;71.38;100021.38;6242977;22;20014;-74
2022/09/27 10:05:04;;;;;;;7.22;1.27;;;;;;;13.60;70.75;100034.41;6241221;22;20066;-75
2022/09/27 10:07:32;;;;;;;4.05;1.08;;;;;;;13.68;69.76;100014.22;6246058;22;20027;-74
2022/09/27 10:10:04;;;;;;;3.72;0.80;;;;;;;13.08;71.12;100013.16;6239895;22;20347;-74
2022/09/27 10:12:30;;;;;;;4.07;0.88;;;;;;;13.32;70.30;100001.59;6244538;22;20039;-74
2022/09/27 10:14:59;;;;;;;3.45;0.80;;;;;;;13.16;70.48;100007.91;6245522;22;20004;-74
2022/09/27 10:17:33;;;;;;;4.35;1.17;;;;;;;13.16;70.83;100003.53;6240835;22;20053;-74
2022/09/27 10:20:01;;;;;;;3.85;0.70;;;;;;;13.28;70.29;100000.78;6243404;22;20008;-74
2022/09/27 10:22:43;;;;;;;5.50;0.93;;;;;;;13.33;70.77;99987.63;6241513;22;20405;-74
2022/09/27 10:25:10;;;;;;;3.90;0.95;;;;;;;13.43;70.57;99985.75;6247720;22;20012;-74
2022/09/27 10:28:01;;;;;;;2.47;0.77;;;;;;;13.50;70.71;99976.94;6247497;22;20537;-74
2022/09/27 10:30:32;;;;;;;3.50;0.80;;;;;;;13.48;70.17;99979.56;6237712;22;20368;-74
2022/09/27 10:33:04;;;;;;;2.78;0.80;;;;;;;13.41;70.53;99980.56;6246878;22;20324;-73
2022/09/27 10:35:36;;;;;;;8.40;0.80;;;;;;;13.55;70.92;99982.97;6242104;22;20379;-74
2022/09/27 10:38:20;;;;;;;3.35;1.10;;;;;;;13.64;71.03;99981.13;6241298;22;20008;-73
2022/09/27 10:40:47;;;;;;;4.00;1.02;;;;;;;13.66;70.70;99984.56;6242877;22;20004;-74
2022/09/27 10:43:34;;;;;;;6.57;1.13;;;;;;;13.47;70.77;99990.09;6243199;22;20431;-72
2022/09/27 10:46:02;;;;;;;4.43;0.98;;;;;;;13.49;71.00;99996.16;6244313;22;20288;-75
2022/09/27 10:48:28;;;;;;;4.43;0.98;;;;;;;13.55;70.79;99999.56;6246408;22;20018;-74
2022/09/27 10:51:22;;;;;;;3.20;0.98;;;;;;;13.39;70.70;99977.94;6250336;22;20336;-75
2022/09/27 10:53:48;;;;;;;6.35;1.02;;;;;;;13.63;70.16;99965.41;6240638;22;20015;-75
2022/09/27 10:56:34;;;;;;;3.92;0.90;;;;;;;13.70;70.68;99964.44;6242719;22;20374;-74
2022/09/27 10:59:01;;;;;;;3.47;0.93;;;;;;;13.73;70.90;99961.78;6240048;22;20657;-75
2022/09/27 11:01:41;;;;;;;3.47;0.90;;;;;;;13.90;69.92;99965.03;6245642;22;20008;-74
2022/09/27 11:04:18;;;;;;;2.47;1.02;;;;;;;14.17;70.82;99962.00;6237604;22;20007;-75
2022/09/27 11:06:43;;;;;;;5.95;1.08;;;;;;;14.49;70.44;99961.50;6247475;22;20347;-74
2022/09/27 11:09:17;;;;;;;2.75;1.02;;;;;;;14.49;70.59;99972.00;6244265;22;20008;-74
2022/09/27 11:11:44;;;;;;;3.58;1.05;;;;;;;14.57;70.13;99964.00;6241264;22;20003;-74
2022/09/27 11:14:20;;;;;;;3.13;0.88;;;;;;;14.39;69.36;99959.94;6242674;22;20038;-74
2022/09/27 11:16:58;;;;;;;3.63;1.05;;;;;;;14.65;69.97;99964.72;6245108;22;20007;-74
2022/09/27 11:19:29;;;;;;;4.05;0.88;;;;;;;14.88;69.79;99959.91;6246880;22;20514;-74
2022/09/27 11:22:00;;;;;;;3.15;0.98;;;;;;;14.85;68.67;99954.72;6245543;22;20057;-74
2022/09/27 11:24:46;;;;;;;3.05;1.10;;;;;;;14.95;68.98;99960.66;6243015;22;20008;-73
2022/09/27 11:27:14;;;;;;;2.92;1.00;;;;;;;15.08;68.71;99962.16;6235934;22;20012;-72
2022/09/27 11:30:04;;;;;;;4.55;0.90;;;;;;;14.48;68.25;99958.91;6237782;22;20330;-72
2022/09/27 11:32:45;;;;;;;5.35;1.00;;;;;;;14.83;68.03;99955.66;6244180;22;20332;-73
2022/09/27 11:35:32;;;;;;;3.38;0.93;;;;;;;15.02;67.96;99957.03;6243373;22;20399;-74
2022/09/27 11:38:16;;;;;;;2.25;1.00;;;;;;;15.06;67.42;99955.22;6234496;22;20019;-73
2022/09/27 11:40:53;;;;;;;3.83;1.08;;;;;;;15.02;66.97;99959.66;6220255;22;20368;-73
2022/09/27 11:43:28;;;;;;;3.22;1.10;;;;;;;15.08;67.61;99958.66;6242687;22;20022;-75
2022/09/27 11:46:03;;;;;;;2.95;1.00;;;;;;;14.90;67.67;99959.88;6246742;22;20003;-74
2022/09/27 11:48:53;;;;;;;5.05;1.13;;;;;;;14.86;66.86;99958.22;6239886;22;20534;-73
2022/09/27 11:51:21;;;;;;;3.45;0.90;;;;;;;14.93;68.04;99958.09;6246574;22;20407;-74
2022/09/27 11:54:14;;;;;;;3.58;0.93;;;;;;;15.25;67.82;99946.06;6242199;22;20007;-73